sensor_id;sensor_type;location;lat;lon;timestamp;pressure;altitude;pressure_sealevel;temperature;humidity
45129;BME280;35512;56.312;101.728;2023-05-24T00:00:06;94796.50;;;4.15;70.38
45129;BME280;35512;56.312;101.728;2023-05-24T00:02:41;94799.94;;;4.16;71.03
45129;BME280;35512;56.312;101.728;2023-05-24T00:05:13;94797.53;;;4.07;70.51
45129;BME280;35512;56.312;101.728;2023-05-24T00:07:44;94805.44;;;4.00;70.36
45129;BME280;35512;56.312;101.728;2023-05-24T00:10:13;94803.06;;;3.95;70.73
45129;BME280;35512;56.312;101.728;2023-05-24T00:12:42;94803.81;;;3.92;70.62
45129;BME280;35512;56.312;101.728;2023-05-24T00:15:11;94797.22;;;3.85;70.78
45129;BME280;35512;56.312;101.728;2023-05-24T00:17:40;94802.91;;;3.84;70.88
45129;BME280;35512;56.312;101.728;2023-05-24T00:20:11;94800.66;;;3.86;70.67
45129;BME280;35512;56.312;101.728;2023-05-24T00:22:41;94803.34;;;3.86;71.19
45129;BME280;35512;56.312;101.728;2023-05-24T00:25:10;94810.63;;;3.89;71.10
45129;BME280;35512;56.312;101.728;2023-05-24T00:27:39;94797.16;;;3.82;71.09
45129;BME280;35512;56.312;101.728;2023-05-24T00:30:08;94792.59;;;3.82;71.78
45129;BME280;35512;56.312;101.728;2023-05-24T00:32:43;94787.72;;;3.88;72.12
45129;BME280;35512;56.312;101.728;2023-05-24T00:35:12;94785.94;;;3.96;72.32
45129;BME280;35512;56.312;101.728;2023-05-24T00:37:41;94780.38;;;4.08;71.86
45129;BME280;35512;56.312;101.728;2023-05-24T00:40:15;94780.53;;;4.19;72.11
45129;BME280;35512;56.312;101.728;2023-05-24T00:42:44;94782.16;;;4.27;72.42
45129;BME280;35512;56.312;101.728;2023-05-24T00:45:13;94790.34;;;4.38;72.05
45129;BME280;35512;56.312;101.728;2023-05-24T00:47:44;94789.81;;;4.59;72.59
45129;BME280;35512;56.312;101.728;2023-05-24T00:50:13;94784.28;;;4.75;71.98
45129;BME280;35512;56.312;101.728;2023-05-24T00:52:46;94795.75;;;4.76;71.97
45129;BME280;35512;56.312;101.728;2023-05-24T00:55:17;94777.84;;;4.80;71.57
45129;BME280;35512;56.312;101.728;2023-05-24T00:57:51;94800.66;;;4.70;71.67
45129;BME280;35512;56.312;101.728;2023-05-24T01:00:31;94807.59;;;4.74;71.83
45129;BME280;35512;56.312;101.728;2023-05-24T01:03:01;94820.81;;;4.94;72.05
45129;BME280;35512;56.312;101.728;2023-05-24T01:05:30;94826.34;;;5.08;71.09
45129;BME280;35512;56.312;101.728;2023-05-24T01:11:29;94849.28;;;5.47;70.71
45129;BME280;35512;56.312;101.728;2023-05-24T01:16:57;94855.56;;;5.62;70.13
45129;BME280;35512;56.312;101.728;2023-05-24T01:19:43;94858.16;;;5.96;69.65
45129;BME280;35512;56.312;101.728;2023-05-24T01:25:44;94871.88;;;6.36;69.41
45129;BME280;35512;56.312;101.728;2023-05-24T01:28:16;94866.91;;;7.08;68.63
45129;BME280;35512;56.312;101.728;2023-05-24T01:30:46;94873.63;;;7.86;67.94
45129;BME280;35512;56.312;101.728;2023-05-24T01:33:15;94868.69;;;8.21;66.49
45129;BME280;35512;56.312;101.728;2023-05-24T01:35:44;94872.50;;;7.91;65.07
45129;BME280;35512;56.312;101.728;2023-05-24T01:38:13;94887.78;;;7.61;64.52
45129;BME280;35512;56.312;101.728;2023-05-24T01:40:46;94886.97;;;7.39;64.89
45129;BME280;35512;56.312;101.728;2023-05-24T01:43:26;94880.56;;;8.16;65.74
45129;BME280;35512;56.312;101.728;2023-05-24T01:49:08;94892.97;;;9.53;62.26
45129;BME280;35512;56.312;101.728;2023-05-24T01:52:00;94901.25;;;9.09;62.16
45129;BME280;35512;56.312;101.728;2023-05-24T01:54:32;94902.75;;;9.18;62.32
45129;BME280;35512;56.312;101.728;2023-05-24T01:57:06;94895.44;;;9.22;61.93
45129;BME280;35512;56.312;101.728;2023-05-24T01:59:39;94908.13;;;9.28;61.85
45129;BME280;35512;56.312;101.728;2023-05-24T02:02:10;94902.75;;;9.10;60.25
45129;BME280;35512;56.312;101.728;2023-05-24T02:04:40;94910.53;;;8.87;60.74
45129;BME280;35512;56.312;101.728;2023-05-24T02:07:09;94910.47;;;9.08;60.36
45129;BME280;35512;56.312;101.728;2023-05-24T02:09:38;94926.69;;;8.79;58.70
45129;BME280;35512;56.312;101.728;2023-05-24T02:12:07;94928.59;;;8.32;59.25
45129;BME280;35512;56.312;101.728;2023-05-24T02:14:39;94922.47;;;8.39;58.67
45129;BME280;35512;56.312;101.728;2023-05-24T02:17:10;94903.97;;;8.91;59.25
45129;BME280;35512;56.312;101.728;2023-05-24T02:19:39;94928.16;;;11.03;59.59
45129;BME280;35512;56.312;101.728;2023-05-24T02:22:09;94933.84;;;12.36;56.74
45129;BME280;35512;56.312;101.728;2023-05-24T02:24:37;94925.50;;;13.42;54.29
45129;BME280;35512;56.312;101.728;2023-05-24T02:27:08;94928.81;;;14.59;54.47
45129;BME280;35512;56.312;101.728;2023-05-24T02:29:36;94924.38;;;15.99;53.18
45129;BME280;35512;56.312;101.728;2023-05-24T02:32:05;94927.59;;;15.10;48.75
45129;BME280;35512;56.312;101.728;2023-05-24T02:34:34;94926.28;;;14.85;51.37
45129;BME280;35512;56.312;101.728;2023-05-24T02:37:11;94928.72;;;16.48;50.64
45129;BME280;35512;56.312;101.728;2023-05-24T02:39:42;94916.28;;;17.65;49.11
45129;BME280;35512;56.312;101.728;2023-05-24T02:42:11;94911.19;;;17.99;47.08
45129;BME280;35512;56.312;101.728;2023-05-24T02:44:40;94926.03;;;17.31;45.04
45129;BME280;35512;56.312;101.728;2023-05-24T02:47:10;94915.06;;;15.42;46.10
45129;BME280;35512;56.312;101.728;2023-05-24T02:49:39;94909.91;;;13.66;46.54
45129;BME280;35512;56.312;101.728;2023-05-24T02:52:08;94923.28;;;13.93;48.11
45129;BME280;35512;56.312;101.728;2023-05-24T02:54:37;94924.81;;;16.11;46.93
45129;BME280;35512;56.312;101.728;2023-05-24T02:57:06;94924.66;;;17.93;42.83
45129;BME280;35512;56.312;101.728;2023-05-24T02:59:35;94932.16;;;17.57;40.30
45129;BME280;35512;56.312;101.728;2023-05-24T03:02:04;94936.34;;;14.84;40.55
45129;BME280;35512;56.312;101.728;2023-05-24T03:04:34;94962.31;;;12.21;43.11
45129;BME280;35512;56.312;101.728;2023-05-24T03:07:04;94988.91;;;10.21;45.21
45129;BME280;35512;56.312;101.728;2023-05-24T03:09:33;94985.06;;;8.14;47.16
45129;BME280;35512;56.312;101.728;2023-05-24T03:12:02;94981.78;;;6.81;50.24
45129;BME280;35512;56.312;101.728;2023-05-24T03:14:33;94976.09;;;6.00;51.46
45129;BME280;35512;56.312;101.728;2023-05-24T03:17:02;94970.59;;;5.51;52.61
45129;BME280;35512;56.312;101.728;2023-05-24T03:19:33;94965.16;;;5.44;53.66
45129;BME280;35512;56.312;101.728;2023-05-24T03:22:02;94967.38;;;7.07;55.09
45129;BME280;35512;56.312;101.728;2023-05-24T03:24:30;94964.31;;;10.11;53.47
45129;BME280;35512;56.312;101.728;2023-05-24T03:27:01;94972.88;;;12.62;50.82
45129;BME280;35512;56.312;101.728;2023-05-24T03:29:30;94971.09;;;14.93;50.19
45129;BME280;35512;56.312;101.728;2023-05-24T03:31:59;94966.13;;;16.61;46.74
45129;BME280;35512;56.312;101.728;2023-05-24T03:34:28;94958.47;;;16.68;45.24
45129;BME280;35512;56.312;101.728;2023-05-24T03:36:57;94951.94;;;15.30;44.18
45129;BME280;35512;56.312;101.728;2023-05-24T03:39:27;94968.59;;;13.12;43.85
45129;BME280;35512;56.312;101.728;2023-05-24T03:42:31;94992.56;;;11.05;45.27
45129;BME280;35512;56.312;101.728;2023-05-24T03:45:00;95004.44;;;10.02;45.81
45129;BME280;35512;56.312;101.728;2023-05-24T03:47:32;95015.19;;;10.73;47.50
45129;BME280;35512;56.312;101.728;2023-05-24T03:50:00;95013.47;;;12.66;46.80
45129;BME280;35512;56.312;101.728;2023-05-24T03:52:31;95008.78;;;14.91;44.59
45129;BME280;35512;56.312;101.728;2023-05-24T03:55:00;95013.66;;;16.04;42.93
45129;BME280;35512;56.312;101.728;2023-05-24T03:57:30;95024.97;;;17.45;42.69
45129;BME280;35512;56.312;101.728;2023-05-24T03:59:59;95018.84;;;19.14;41.66
45129;BME280;35512;56.312;101.728;2023-05-24T04:02:32;95012.88;;;20.46;40.73
45129;BME280;35512;56.312;101.728;2023-05-24T04:05:04;95016.94;;;21.26;39.35
45129;BME280;35512;56.312;101.728;2023-05-24T04:07:33;95022.00;;;21.43;35.69
45129;BME280;35512;56.312;101.728;2023-05-24T04:10:04;95024.31;;;21.20;37.23
45129;BME280;35512;56.312;101.728;2023-05-24T04:12:34;95023.84;;;21.46;35.78
45129;BME280;35512;56.312;101.728;2023-05-24T04:15:05;95020.47;;;20.93;35.47
45129;BME280;35512;56.312;101.728;2023-05-24T04:17:35;95027.16;;;21.26;34.25
45129;BME280;35512;56.312;101.728;2023-05-24T04:20:05;95037.53;;;21.94;34.43
45129;BME280;35512;56.312;101.728;2023-05-24T04:22:34;95049.84;;;21.84;33.43
45129;BME280;35512;56.312;101.728;2023-05-24T04:25:04;95058.34;;;21.86;32.91
45129;BME280;35512;56.312;101.728;2023-05-24T04:27:33;95083.00;;;20.89;31.96
45129;BME280;35512;56.312;101.728;2023-05-24T04:30:04;95075.44;;;18.10;31.89
45129;BME280;35512;56.312;101.728;2023-05-24T04:32:35;95090.78;;;15.39;34.44
45129;BME280;35512;56.312;101.728;2023-05-24T04:35:05;95101.97;;;13.51;36.31
45129;BME280;35512;56.312;101.728;2023-05-24T04:37:34;95103.88;;;12.14;36.96
45129;BME280;35512;56.312;101.728;2023-05-24T04:40:04;95080.91;;;11.11;37.99
45129;BME280;35512;56.312;101.728;2023-05-24T04:42:34;95083.44;;;10.77;38.79
45129;BME280;35512;56.312;101.728;2023-05-24T04:45:03;95087.44;;;10.54;38.66
45129;BME280;35512;56.312;101.728;2023-05-24T04:47:33;95091.88;;;10.05;39.07
45129;BME280;35512;56.312;101.728;2023-05-24T04:50:02;95092.28;;;9.92;39.82
45129;BME280;35512;56.312;101.728;2023-05-24T04:52:31;95088.50;;;11.24;40.80
45129;BME280;35512;56.312;101.728;2023-05-24T04:55:02;95093.06;;;13.50;38.57
45129;BME280;35512;56.312;101.728;2023-05-24T04:57:32;95088.41;;;14.92;37.50
45129;BME280;35512;56.312;101.728;2023-05-24T05:00:01;95095.06;;;16.58;36.45
45129;BME280;35512;56.312;101.728;2023-05-24T05:02:33;95096.00;;;18.02;35.40
45129;BME280;35512;56.312;101.728;2023-05-24T05:05:03;95084.94;;;19.03;34.08
45129;BME280;35512;56.312;101.728;2023-05-24T05:07:32;95078.66;;;19.53;33.24
45129;BME280;35512;56.312;101.728;2023-05-24T05:10:02;95091.47;;;19.74;32.37
45129;BME280;35512;56.312;101.728;2023-05-24T05:12:31;95092.56;;;20.05;31.77
45129;BME280;35512;56.312;101.728;2023-05-24T05:15:00;95089.50;;;20.31;32.13
45129;BME280;35512;56.312;101.728;2023-05-24T05:17:31;95096.25;;;21.24;30.47
45129;BME280;35512;56.312;101.728;2023-05-24T05:20:00;95100.94;;;21.00;29.77
45129;BME280;35512;56.312;101.728;2023-05-24T05:22:30;95094.19;;;19.65;30.65
45129;BME280;35512;56.312;101.728;2023-05-24T05:24:59;95091.34;;;19.97;30.83
45129;BME280;35512;56.312;101.728;2023-05-24T05:27:31;95099.34;;;20.74;29.51
45129;BME280;35512;56.312;101.728;2023-05-24T05:30:00;95097.06;;;20.73;28.55
45129;BME280;35512;56.312;101.728;2023-05-24T05:32:33;95101.75;;;19.42;29.23
45129;BME280;35512;56.312;101.728;2023-05-24T05:35:03;95082.28;;;19.40;29.68
45129;BME280;35512;56.312;101.728;2023-05-24T05:37:32;95096.22;;;19.92;29.23
45129;BME280;35512;56.312;101.728;2023-05-24T05:40:01;95093.31;;;21.04;28.64
45129;BME280;35512;56.312;101.728;2023-05-24T05:42:31;95097.13;;;21.88;27.49
45129;BME280;35512;56.312;101.728;2023-05-24T05:45:01;95108.34;;;22.00;26.65
45129;BME280;35512;56.312;101.728;2023-05-24T05:47:32;95106.66;;;21.20;26.10
45129;BME280;35512;56.312;101.728;2023-05-24T05:50:01;95109.38;;;19.48;26.58
45129;BME280;35512;56.312;101.728;2023-05-24T05:52:32;95107.31;;;17.17;28.19
45129;BME280;35512;56.312;101.728;2023-05-24T05:55:01;95119.34;;;15.31;29.62
45129;BME280;35512;56.312;101.728;2023-05-24T05:57:30;95126.94;;;13.86;30.54
45129;BME280;35512;56.312;101.728;2023-05-24T05:59:59;95135.88;;;12.84;31.24
45129;BME280;35512;56.312;101.728;2023-05-24T06:02:39;95122.19;;;12.33;32.28
45129;BME280;35512;56.312;101.728;2023-05-24T06:05:09;95132.69;;;11.93;32.50
45129;BME280;35512;56.312;101.728;2023-05-24T06:07:39;95145.00;;;11.56;32.98
45129;BME280;35512;56.312;101.728;2023-05-24T06:10:08;95162.38;;;11.06;33.67
45129;BME280;35512;56.312;101.728;2023-05-24T06:12:37;95169.22;;;10.44;34.47
45129;BME280;35512;56.312;101.728;2023-05-24T06:15:08;95196.72;;;9.70;35.22
45129;BME280;35512;56.312;101.728;2023-05-24T06:17:37;95192.06;;;9.06;37.73
45129;BME280;35512;56.312;101.728;2023-05-24T06:20:06;95206.59;;;7.95;39.46
45129;BME280;35512;56.312;101.728;2023-05-24T06:22:41;95214.53;;;6.91;41.61
45129;BME280;35512;56.312;101.728;2023-05-24T06:25:10;95214.75;;;6.11;41.89
45129;BME280;35512;56.312;101.728;2023-05-24T06:27:42;95204.94;;;5.68;42.96
45129;BME280;35512;56.312;101.728;2023-05-24T06:30:12;95195.50;;;5.51;43.67
45129;BME280;35512;56.312;101.728;2023-05-24T06:32:41;95191.44;;;5.61;43.33
45129;BME280;35512;56.312;101.728;2023-05-24T06:35:10;95185.63;;;5.82;43.23
45129;BME280;35512;56.312;101.728;2023-05-24T06:37:39;95185.84;;;6.27;43.22
45129;BME280;35512;56.312;101.728;2023-05-24T06:40:08;95182.81;;;7.00;43.14
45129;BME280;35512;56.312;101.728;2023-05-24T06:42:38;95187.00;;;8.72;42.99
45129;BME280;35512;56.312;101.728;2023-05-24T06:45:07;95177.50;;;10.93;41.98
45129;BME280;35512;56.312;101.728;2023-05-24T06:47:37;95181.91;;;14.14;41.25
45129;BME280;35512;56.312;101.728;2023-05-24T06:50:06;95166.69;;;17.39;39.33
45129;BME280;35512;56.312;101.728;2023-05-24T06:52:36;95165.69;;;19.58;37.34
45129;BME280;35512;56.312;101.728;2023-05-24T06:55:05;95173.66;;;21.04;36.05
45129;BME280;35512;56.312;101.728;2023-05-24T06:57:34;95175.38;;;21.35;34.45
45129;BME280;35512;56.312;101.728;2023-05-24T07:00:04;95171.13;;;20.36;34.33
45129;BME280;35512;56.312;101.728;2023-05-24T07:02:38;95162.09;;;19.80;34.58
45129;BME280;35512;56.312;101.728;2023-05-24T07:05:08;95153.00;;;20.01;33.53
45129;BME280;35512;56.312;101.728;2023-05-24T07:07:42;95165.31;;;20.71;33.10
45129;BME280;35512;56.312;101.728;2023-05-24T07:10:12;95155.28;;;21.87;31.55
45129;BME280;35512;56.312;101.728;2023-05-24T07:12:41;95166.81;;;22.64;30.85
45129;BME280;35512;56.312;101.728;2023-05-24T07:15:10;95168.16;;;22.05;29.09
45129;BME280;35512;56.312;101.728;2023-05-24T07:17:39;95158.84;;;19.63;29.79
45129;BME280;35512;56.312;101.728;2023-05-24T07:20:09;95167.09;;;17.24;30.54
45129;BME280;35512;56.312;101.728;2023-05-24T07:22:39;95160.97;;;15.94;31.62
45129;BME280;35512;56.312;101.728;2023-05-24T07:25:08;95161.44;;;17.45;31.38
45129;BME280;35512;56.312;101.728;2023-05-24T07:27:37;95162.56;;;18.97;30.14
45129;BME280;35512;56.312;101.728;2023-05-24T07:30:07;95160.94;;;20.36;29.45
45129;BME280;35512;56.312;101.728;2023-05-24T07:32:56;95158.31;;;21.65;28.33
45129;BME280;35512;56.312;101.728;2023-05-24T07:35:25;95165.47;;;22.20;26.85
45129;BME280;35512;56.312;101.728;2023-05-24T07:37:56;95169.47;;;22.73;26.96
45129;BME280;35512;56.312;101.728;2023-05-24T07:40:25;95159.94;;;22.59;24.67
45129;BME280;35512;56.312;101.728;2023-05-24T07:42:54;95169.31;;;22.13;24.51
45129;BME280;35512;56.312;101.728;2023-05-24T07:45:23;95179.63;;;21.36;23.99
45129;BME280;35512;56.312;101.728;2023-05-24T07:47:53;95181.00;;;19.96;24.51
45129;BME280;35512;56.312;101.728;2023-05-24T07:50:23;95196.63;;;18.03;25.24
45129;BME280;35512;56.312;101.728;2023-05-24T07:52:55;95192.63;;;16.04;26.70
45129;BME280;35512;56.312;101.728;2023-05-24T07:55:24;95202.59;;;14.48;27.89
45129;BME280;35512;56.312;101.728;2023-05-24T07:57:55;95195.91;;;13.65;28.62
45129;BME280;35512;56.312;101.728;2023-05-24T08:00:25;95210.97;;;13.42;28.90
45129;BME280;35512;56.312;101.728;2023-05-24T08:02:54;95194.28;;;13.16;28.77
45129;BME280;35512;56.312;101.728;2023-05-24T08:05:24;95192.19;;;12.70;29.20
45129;BME280;35512;56.312;101.728;2023-05-24T08:07:53;95201.19;;;12.25;29.07
45129;BME280;35512;56.312;101.728;2023-05-24T08:10:23;95218.13;;;11.87;29.58
45129;BME280;35512;56.312;101.728;2023-05-24T08:12:52;95222.16;;;11.68;30.15
45129;BME280;35512;56.312;101.728;2023-05-24T08:15:23;95248.66;;;11.35;30.61
45129;BME280;35512;56.312;101.728;2023-05-24T08:17:52;95253.66;;;10.48;32.02
45129;BME280;35512;56.312;101.728;2023-05-24T08:20:21;95278.31;;;9.31;33.55
45129;BME280;35512;56.312;101.728;2023-05-24T08:22:51;95287.44;;;8.24;35.82
45129;BME280;35512;56.312;101.728;2023-05-24T08:25:20;95299.53;;;7.51;37.29
45129;BME280;35512;56.312;101.728;2023-05-24T08:27:49;95307.97;;;7.12;38.53
45129;BME280;35512;56.312;101.728;2023-05-24T08:30:19;95305.66;;;7.14;40.00
45129;BME280;35512;56.312;101.728;2023-05-24T08:32:48;95302.50;;;7.80;39.87
45129;BME280;35512;56.312;101.728;2023-05-24T08:35:17;95295.84;;;8.82;40.50
45129;BME280;35512;56.312;101.728;2023-05-24T08:37:49;95302.59;;;9.53;39.70
45129;BME280;35512;56.312;101.728;2023-05-24T08:40:18;95292.63;;;9.82;38.91
45129;BME280;35512;56.312;101.728;2023-05-24T08:42:48;95286.47;;;9.67;38.98
45129;BME280;35512;56.312;101.728;2023-05-24T08:45:20;95286.84;;;9.66;39.39
45129;BME280;35512;56.312;101.728;2023-05-24T08:47:51;95287.25;;;9.75;38.92
45129;BME280;35512;56.312;101.728;2023-05-24T08:50:20;95266.44;;;9.90;39.42
45129;BME280;35512;56.312;101.728;2023-05-24T08:52:50;95295.31;;;9.64;39.53
45129;BME280;35512;56.312;101.728;2023-05-24T08:55:20;95280.66;;;9.51;39.79
45129;BME280;35512;56.312;101.728;2023-05-24T08:57:49;95289.50;;;9.44;39.36
45129;BME280;35512;56.312;101.728;2023-05-24T09:00:20;95278.72;;;9.40;39.48
45129;BME280;35512;56.312;101.728;2023-05-24T09:02:50;95291.06;;;9.67;39.72
45129;BME280;35512;56.312;101.728;2023-05-24T09:05:19;95303.78;;;9.84;39.29
45129;BME280;35512;56.312;101.728;2023-05-24T09:07:49;95318.44;;;10.23;39.13
45129;BME280;35512;56.312;101.728;2023-05-24T09:10:19;95315.31;;;10.64;38.79
45129;BME280;35512;56.312;101.728;2023-05-24T09:12:54;95313.97;;;11.19;38.37
45129;BME280;35512;56.312;101.728;2023-05-24T09:15:25;95317.22;;;11.63;37.52
45129;BME280;35512;56.312;101.728;2023-05-24T09:17:54;95318.00;;;11.63;37.28
45129;BME280;35512;56.312;101.728;2023-05-24T09:20:23;95325.44;;;11.45;37.56
45129;BME280;35512;56.312;101.728;2023-05-24T09:22:52;95326.66;;;11.29;37.63
45129;BME280;35512;56.312;101.728;2023-05-24T09:25:21;95328.97;;;11.35;37.90
45129;BME280;35512;56.312;101.728;2023-05-24T09:27:52;95334.00;;;11.32;37.67
45129;BME280;35512;56.312;101.728;2023-05-24T09:30:21;95323.19;;;11.32;37.73
45129;BME280;35512;56.312;101.728;2023-05-24T09:32:58;95334.53;;;10.95;37.70
45129;BME280;35512;56.312;101.728;2023-05-24T09:35:28;95340.78;;;10.56;37.94
45129;BME280;35512;56.312;101.728;2023-05-24T09:37:58;95340.81;;;10.27;38.07
45129;BME280;35512;56.312;101.728;2023-05-24T09:40:27;95347.34;;;9.97;38.17
45129;BME280;35512;56.312;101.728;2023-05-24T09:43:08;95356.47;;;9.42;38.18
45129;BME280;35512;56.312;101.728;2023-05-24T09:45:45;95365.16;;;8.99;38.98
45129;BME280;35512;56.312;101.728;2023-05-24T09:48:15;95371.50;;;8.66;39.77
45129;BME280;35512;56.312;101.728;2023-05-24T09:51:17;95371.03;;;8.04;41.43
45129;BME280;35512;56.312;101.728;2023-05-24T09:53:46;95397.81;;;7.22;43.61
45129;BME280;35512;56.312;101.728;2023-05-24T09:56:17;95394.63;;;6.55;45.17
45129;BME280;35512;56.312;101.728;2023-05-24T09:58:46;95402.53;;;6.21;45.90
45129;BME280;35512;56.312;101.728;2023-05-24T10:01:16;95416.56;;;6.11;46.55
45129;BME280;35512;56.312;101.728;2023-05-24T10:03:57;95409.28;;;6.12;46.60
45129;BME280;35512;56.312;101.728;2023-05-24T10:06:32;95399.09;;;6.21;46.00
45129;BME280;35512;56.312;101.728;2023-05-24T10:09:05;95411.72;;;6.43;46.28
45129;BME280;35512;56.312;101.728;2023-05-24T10:11:35;95417.84;;;6.44;46.78
45129;BME280;35512;56.312;101.728;2023-05-24T10:14:05;95406.13;;;6.29;47.02
45129;BME280;35512;56.312;101.728;2023-05-24T10:16:34;95414.72;;;6.15;47.46
45129;BME280;35512;56.312;101.728;2023-05-24T10:19:05;95409.22;;;6.08;47.87
45129;BME280;35512;56.312;101.728;2023-05-24T10:21:35;95415.66;;;6.03;47.89
45129;BME280;35512;56.312;101.728;2023-05-24T10:24:08;95406.06;;;6.02;48.42
45129;BME280;35512;56.312;101.728;2023-05-24T10:26:39;95410.22;;;6.00;48.78
45129;BME280;35512;56.312;101.728;2023-05-24T10:32:05;95420.53;;;6.21;48.98
45129;BME280;35512;56.312;101.728;2023-05-24T10:34:35;95409.75;;;6.17;49.22
45129;BME280;35512;56.312;101.728;2023-05-24T10:37:05;95426.09;;;6.08;49.90
45129;BME280;35512;56.312;101.728;2023-05-24T10:39:35;95432.50;;;6.04;49.88
45129;BME280;35512;56.312;101.728;2023-05-24T10:42:06;95437.38;;;5.98;50.00
45129;BME280;35512;56.312;101.728;2023-05-24T10:44:36;95430.75;;;5.92;51.20
45129;BME280;35512;56.312;101.728;2023-05-24T10:47:14;95434.66;;;5.75;50.76
45129;BME280;35512;56.312;101.728;2023-05-24T10:52:19;95445.91;;;5.84;51.17
45129;BME280;35512;56.312;101.728;2023-05-24T10:55:02;95449.91;;;5.94;50.32
45129;BME280;35512;56.312;101.728;2023-05-24T10:57:34;95455.31;;;6.17;50.22
45129;BME280;35512;56.312;101.728;2023-05-24T11:03:08;95455.50;;;6.51;50.52
45129;BME280;35512;56.312;101.728;2023-05-24T11:08:40;95436.69;;;6.74;49.34
45129;BME280;35512;56.312;101.728;2023-05-24T11:11:13;95455.00;;;6.69;49.55
45129;BME280;35512;56.312;101.728;2023-05-24T11:13:55;95457.00;;;6.49;49.98
45129;BME280;35512;56.312;101.728;2023-05-24T11:16:34;95454.56;;;6.40;49.88
45129;BME280;35512;56.312;101.728;2023-05-24T11:19:18;95451.81;;;6.36;50.45
45129;BME280;35512;56.312;101.728;2023-05-24T11:21:51;95456.41;;;6.36;50.41
45129;BME280;35512;56.312;101.728;2023-05-24T11:24:26;95470.00;;;6.23;50.85
45129;BME280;35512;56.312;101.728;2023-05-24T11:26:56;95464.66;;;6.04;51.91
45129;BME280;35512;56.312;101.728;2023-05-24T11:29:25;95466.09;;;5.98;52.09
45129;BME280;35512;56.312;101.728;2023-05-24T11:31:57;95467.28;;;5.81;52.05
45129;BME280;35512;56.312;101.728;2023-05-24T11:34:32;95476.53;;;5.64;52.12
45129;BME280;35512;56.312;101.728;2023-05-24T11:37:02;95469.69;;;5.47;52.73
45129;BME280;35512;56.312;101.728;2023-05-24T11:39:34;95478.84;;;5.26;53.07
45129;BME280;35512;56.312;101.728;2023-05-24T11:42:05;95483.97;;;5.15;53.45
45129;BME280;35512;56.312;101.728;2023-05-24T11:44:35;95486.75;;;5.03;53.63
45129;BME280;35512;56.312;101.728;2023-05-24T11:47:07;95487.53;;;5.03;53.52
45129;BME280;35512;56.312;101.728;2023-05-24T11:49:36;95492.09;;;5.03;52.99
45129;BME280;35512;56.312;101.728;2023-05-24T11:52:05;95482.72;;;4.93;53.21
45129;BME280;35512;56.312;101.728;2023-05-24T11:54:35;95504.81;;;4.90;53.46
45129;BME280;35512;56.312;101.728;2023-05-24T11:57:06;95502.16;;;4.90;54.14
45129;BME280;35512;56.312;101.728;2023-05-24T11:59:40;95499.38;;;4.86;53.87
45129;BME280;35512;56.312;101.728;2023-05-24T12:02:10;95501.59;;;5.00;54.11
45129;BME280;35512;56.312;101.728;2023-05-24T12:04:39;95510.84;;;5.03;54.38
45129;BME280;35512;56.312;101.728;2023-05-24T12:07:11;95510.06;;;5.02;54.45
45129;BME280;35512;56.312;101.728;2023-05-24T12:09:40;95516.47;;;4.98;55.01
45129;BME280;35512;56.312;101.728;2023-05-24T12:12:09;95517.16;;;4.95;55.50
45129;BME280;35512;56.312;101.728;2023-05-24T12:14:38;95524.31;;;4.90;55.74
45129;BME280;35512;56.312;101.728;2023-05-24T12:17:13;95525.38;;;4.86;55.83
45129;BME280;35512;56.312;101.728;2023-05-24T12:19:48;95522.25;;;4.84;56.38
45129;BME280;35512;56.312;101.728;2023-05-24T12:22:25;95529.75;;;4.78;56.20
45129;BME280;35512;56.312;101.728;2023-05-24T12:24:55;95531.59;;;4.74;55.91
45129;BME280;35512;56.312;101.728;2023-05-24T12:27:26;95536.06;;;4.70;56.31
45129;BME280;35512;56.312;101.728;2023-05-24T12:30:05;95545.75;;;4.59;56.47
45129;BME280;35512;56.312;101.728;2023-05-24T12:32:34;95544.00;;;4.50;57.06
45129;BME280;35512;56.312;101.728;2023-05-24T12:35:07;95545.03;;;4.46;58.16
45129;BME280;35512;56.312;101.728;2023-05-24T12:37:36;95543.28;;;4.37;58.37
45129;BME280;35512;56.312;101.728;2023-05-24T12:40:25;95553.91;;;4.34;58.29
45129;BME280;35512;56.312;101.728;2023-05-24T12:42:56;95545.44;;;4.32;58.05
45129;BME280;35512;56.312;101.728;2023-05-24T12:45:26;95556.06;;;4.44;58.42
45129;BME280;35512;56.312;101.728;2023-05-24T12:47:57;95557.78;;;4.52;57.73
45129;BME280;35512;56.312;101.728;2023-05-24T12:50:30;95563.50;;;4.51;58.32
45129;BME280;35512;56.312;101.728;2023-05-24T12:52:59;95552.25;;;4.29;59.06
45129;BME280;35512;56.312;101.728;2023-05-24T12:55:28;95570.53;;;4.27;58.75
45129;BME280;35512;56.312;101.728;2023-05-24T12:57:58;95574.28;;;4.10;59.58
45129;BME280;35512;56.312;101.728;2023-05-24T13:00:29;95573.03;;;3.92;60.46
45129;BME280;35512;56.312;101.728;2023-05-24T13:02:58;95557.03;;;3.79;61.13
45129;BME280;35512;56.312;101.728;2023-05-24T13:05:28;95553.97;;;3.65;61.01
45129;BME280;35512;56.312;101.728;2023-05-24T13:07:58;95564.66;;;3.52;61.14
45129;BME280;35512;56.312;101.728;2023-05-24T13:10:27;95548.34;;;3.42;61.58
45129;BME280;35512;56.312;101.728;2023-05-24T13:12:56;95561.25;;;3.40;61.91
45129;BME280;35512;56.312;101.728;2023-05-24T13:15:25;95574.50;;;3.36;61.45
45129;BME280;35512;56.312;101.728;2023-05-24T13:17:54;95573.59;;;3.32;61.81
45129;BME280;35512;56.312;101.728;2023-05-24T13:20:24;95568.69;;;3.34;61.61
45129;BME280;35512;56.312;101.728;2023-05-24T13:22:53;95560.94;;;3.29;61.77
45129;BME280;35512;56.312;101.728;2023-05-24T13:25:23;95563.03;;;3.23;61.97
45129;BME280;35512;56.312;101.728;2023-05-24T13:27:57;95565.63;;;3.19;62.26